Time,TemperatureF,DewpointF,PressureIn,WindDirection,WindDirectionDegrees,WindSpeedMPH,WindSpeedGustMPH,Humidity,HourlyPrecipIn,Conditions,Clouds,dailyrainin,SoftwareType,DateUTC
2016-12-04 00:00:00,33.3,32.0,33.01,South,180,2.5,2.9,95,0.00,,---,0.00,VWS V15.00,2016-12-04 06:00:00,
2016-12-04 00:06:00,33.3,32.0,33.01,South,180,2.9,3.8,95,0.00,,---,0.00,VWS V15.00,2016-12-04 06:06:00,
2016-12-04 00:11:00,33.3,32.0,33.01,South,180,2.9,3.6,95,0.00,,---,0.00,VWS V15.00,2016-12-04 06:11:00,
2016-12-04 00:17:00,33.3,32.0,33.01,South,180,3.1,3.4,95,0.00,,---,0.00,VWS V15.00,2016-12-04 06:17:00,
2016-12-04 00:23:00,33.3,32.0,33.01,South,180,1.3,1.3,95,0.00,,---,0.00,VWS V15.00,2016-12-04 06:23:00,
2016-12-04 00:28:00,33.3,32.0,33.01,South,180,2.7,3.4,95,0.00,,---,0.00,VWS V15.00,2016-12-04 06:28:00,
2016-12-04 00:33:00,33.3,32.0,33.01,South,180,2.0,2.0,95,0.00,,---,0.00,VWS V15.00,2016-12-04 06:33:00,
2016-12-04 00:38:00,33.3,32.0,33.01,South,180,3.8,4.5,95,0.00,,---,0.00,VWS V15.00,2016-12-04 06:38:00,
2016-12-04 00:43:00,33.3,32.0,33.01,South,180,2.5,3.8,95,0.00,,---,0.00,VWS V15.00,2016-12-04 06:43:00,
2016-12-04 00:48:00,33.3,32.0,33.01,South,180,2.5,2.5,95,0.00,,---,0.00,VWS V15.00,2016-12-04 06:48:00,
2016-12-04 00:54:00,33.3,32.0,33.01,South,180,2.7,2.7,95,0.00,,---,0.00,VWS V15.00,2016-12-04 06:54:00,
2016-12-04 00:59:00,33.3,32.0,33.01,South,180,2.9,2.9,95,0.00,,---,0.00,VWS V15.00,2016-12-04 06:59:00,
2016-12-04 01:04:00,33.3,32.0,33.01,South,180,0.0,2.7,95,0.00,,---,0.00,VWS V15.00,2016-12-04 07:04:00,
2016-12-04 01:09:00,33.3,32.0,33.01,South,180,2.2,3.4,95,0.00,,---,0.00,VWS V15.00,2016-12-04 07:09:00,
2016-12-04 01:14:00,33.3,32.0,32.98,South,180,4.3,4.9,95,0.00,,---,0.00,VWS V15.00,2016-12-04 07:14:00,
2016-12-04 01:19:00,33.1,32.1,32.98,South,180,4.0,4.0,96,0.00,,---,0.00,VWS V15.00,2016-12-04 07:19:00,
2016-12-04 01:24:00,33.1,31.8,32.98,South,180,2.0,2.2,95,0.00,,---,0.00,VWS V15.00,2016-12-04 07:24:00,
2016-12-04 01:29:00,33.1,31.8,32.98,South,180,2.5,2.5,95,0.00,,---,0.00,VWS V15.00,2016-12-04 07:29:00,
2016-12-04 01:34:00,33.1,32.1,32.98,South,180,1.6,2.0,96,0.00,,---,0.00,VWS V15.00,2016-12-04 07:34:00,
2016-12-04 01:39:00,33.1,32.1,32.98,South,180,1.1,2.5,96,0.00,,---,0.00,VWS V15.00,2016-12-04 07:39:00,
2016-12-04 01:44:00,33.3,32.2,32.98,South,180,1.1,2.5,96,0.00,,---,0.00,VWS V15.00,2016-12-04 07:44:00,
2016-12-04 01:49:00,33.1,32.1,32.98,South,180,2.2,3.1,96,0.00,,---,0.00,VWS V15.00,2016-12-04 07:49:00,
2016-12-04 01:54:00,33.1,31.8,32.98,South,180,3.6,3.6,95,0.00,,---,0.00,VWS V15.00,2016-12-04 07:54:00,
2016-12-04 01:59:00,33.1,31.8,32.95,South,180,5.8,5.8,95,0.00,,---,0.00,VWS V15.00,2016-12-04 07:59:00,
2016-12-04 02:04:00,33.1,31.8,32.95,South,180,2.0,2.5,95,0.00,,---,0.00,VWS V15.00,2016-12-04 08:04:00,
2016-12-04 02:10:00,33.1,31.8,32.95,South,180,1.3,1.3,95,0.00,,---,0.00,VWS V15.00,2016-12-04 08:10:00,
2016-12-04 02:15:00,33.1,31.8,32.95,South,180,0.0,0.0,95,0.00,,---,0.00,VWS V15.00,2016-12-04 08:15:00,
2016-12-04 02:20:00,33.1,31.8,32.95,South,180,2.9,2.9,95,0.00,,---,0.00,VWS V15.00,2016-12-04 08:20:00,
2016-12-04 02:25:00,33.1,31.8,32.95,South,180,3.4,3.4,95,0.00,,---,0.00,VWS V15.00,2016-12-04 08:25:00,
2016-12-04 02:30:00,33.1,31.8,32.98,South,180,2.5,3.4,95,0.00,,---,0.00,VWS V15.00,2016-12-04 08:30:00,
2016-12-04 02:35:00,33.1,31.8,32.98,South,180,1.1,3.6,95,0.00,,---,0.00,VWS V15.00,2016-12-04 08:35:00,
2016-12-04 02:40:00,33.1,31.8,32.98,South,180,1.6,3.1,95,0.00,,---,0.00,VWS V15.00,2016-12-04 08:40:00,
2016-12-04 02:45:00,33.1,32.1,32.95,South,180,2.0,2.0,96,0.00,,---,0.00,VWS V15.00,2016-12-04 08:45:00,
2016-12-04 02:50:00,32.9,31.9,32.95,South,180,0.0,0.0,96,0.00,,---,0.00,VWS V15.00,2016-12-04 08:50:00,
2016-12-04 02:55:00,32.9,31.9,32.95,South,180,0.0,1.1,96,0.00,,---,0.00,VWS V15.00,2016-12-04 08:55:00,
2016-12-04 03:00:00,32.9,31.9,32.95,South,180,2.7,3.1,96,0.00,,---,0.00,VWS V15.00,2016-12-04 09:00:00,
2016-12-04 03:05:00,32.9,31.9,32.95,South,180,0.0,1.3,96,0.00,,---,0.00,VWS V15.00,2016-12-04 09:05:00,
2016-12-04 03:10:00,32.9,31.9,32.95,South,180,2.7,2.7,96,0.00,,---,0.00,VWS V15.00,2016-12-04 09:10:00,
2016-12-04 03:15:00,32.9,31.9,32.92,South,180,2.0,2.0,96,0.00,,---,0.00,VWS V15.00,2016-12-04 09:15:00,
2016-12-04 03:20:00,32.9,31.9,32.92,South,180,0.9,0.9,96,0.00,,---,0.00,VWS V15.00,2016-12-04 09:20:00,
2016-12-04 03:25:00,32.9,31.9,32.92,South,180,1.6,2.2,96,0.00,,---,0.00,VWS V15.00,2016-12-04 09:25:00,
2016-12-04 03:30:00,32.9,31.9,32.92,South,180,0.0,2.5,96,0.00,,---,0.00,VWS V15.00,2016-12-04 09:30:00,
2016-12-04 03:35:00,32.9,31.9,32.92,South,180,1.6,2.7,96,0.00,,---,0.00,VWS V15.00,2016-12-04 09:35:00,
2016-12-04 03:40:00,32.9,31.9,32.92,South,180,4.3,4.3,96,0.00,,---,0.00,VWS V15.00,2016-12-04 09:40:00,
2016-12-04 03:45:00,32.9,31.9,32.92,South,180,1.3,1.6,96,0.00,,---,0.00,VWS V15.00,2016-12-04 09:45:00,
2016-12-04 03:50:00,32.9,31.9,32.92,South,180,2.0,2.2,96,0.00,,---,0.00,VWS V15.00,2016-12-04 09:50:00,
2016-12-04 03:55:00,33.1,32.3,32.92,South,180,0.0,0.0,97,0.00,,---,0.00,VWS V15.00,2016-12-04 09:55:00,
2016-12-04 04:00:00,32.9,31.9,32.92,South,180,2.9,2.9,96,0.00,,---,0.00,VWS V15.00,2016-12-04 10:00:00,
2016-12-04 04:05:00,32.9,32.1,32.92,South,180,0.9,1.3,97,0.00,,---,0.00,VWS V15.00,2016-12-04 10:05:00,
2016-12-04 04:10:00,32.9,32.1,32.90,South,180,1.6,3.8,97,0.00,,---,0.00,VWS V15.00,2016-12-04 10:10:00,
2016-12-04 04:15:00,32.9,32.1,32.90,South,180,2.5,2.5,97,0.00,,---,0.00,VWS V15.00,2016-12-04 10:15:00,
2016-12-04 04:20:00,32.7,32.0,32.90,South,180,1.6,2.7,97,0.00,,---,0.00,VWS V15.00,2016-12-04 10:20:00,
2016-12-04 04:25:00,32.7,32.0,32.90,South,180,2.0,2.5,97,0.00,,---,0.00,VWS V15.00,2016-12-04 10:25:00,
2016-12-04 04:30:00,32.9,32.1,32.90,South,180,2.2,2.2,97,0.00,,---,0.00,VWS V15.00,2016-12-04 10:30:00,
2016-12-04 04:36:00,32.9,32.1,32.90,South,180,1.6,2.5,97,0.00,,---,0.00,VWS V15.00,2016-12-04 10:36:00,
2016-12-04 04:41:00,32.9,32.1,32.90,South,180,1.1,1.1,97,0.00,,---,0.00,VWS V15.00,2016-12-04 10:41:00,
2016-12-04 04:46:00,32.9,32.1,32.90,South,180,0.0,0.0,97,0.00,,---,0.00,VWS V15.00,2016-12-04 10:46:00,
2016-12-04 04:51:00,32.9,32.1,32.90,South,180,2.5,4.3,97,0.00,,---,0.00,VWS V15.00,2016-12-04 10:51:00,